createdAt,value
2023-10-28T00:00:25.309Z,8.4
2023-10-28T00:01:25.509Z,8.48
2023-10-28T00:02:25.639Z,8.48
2023-10-28T00:03:25.781Z,8.4
2023-10-28T00:04:25.922Z,8.48
2023-10-28T00:05:26.065Z,8.32
2023-10-28T00:06:26.218Z,8.24
2023-10-28T00:07:26.375Z,8.24
2023-10-28T00:08:26.522Z,7.92
2023-10-28T00:09:26.673Z,7.92
2023-10-28T00:10:26.831Z,8.24
2023-10-28T00:11:26.927Z,8.24
2023-10-28T00:12:27.076Z,8.32
2023-10-28T00:13:27.233Z,8.639999
2023-10-28T00:14:27.397Z,8.48
2023-10-28T00:15:27.530Z,8.48
2023-10-28T00:16:27.687Z,8.4
2023-10-28T00:17:27.890Z,8.32
2023-10-28T00:18:27.992Z,8.24
2023-10-28T00:19:28.146Z,8.72
2023-10-28T00:20:28.296Z,8.639999
2023-10-28T00:21:28.443Z,8.48
2023-10-28T00:22:28.606Z,8.72
2023-10-28T00:23:28.752Z,8.8
2023-10-28T00:24:28.896Z,8.8
2023-10-28T00:25:29.048Z,9.04
2023-10-28T00:26:29.198Z,9.04
2023-10-28T00:27:29.304Z,9.12
2023-10-28T00:28:29.457Z,9.04
2023-10-28T00:29:29.630Z,9.12
2023-10-28T00:30:29.760Z,9.12
2023-10-28T00:31:29.947Z,9.04
2023-10-28T00:32:30.066Z,9.04
2023-10-28T00:33:30.215Z,8.88
2023-10-28T00:34:30.365Z,8.88
2023-10-28T00:35:30.529Z,8.72
2023-10-28T00:36:30.677Z,8.4
2023-10-28T00:37:30.820Z,8.639999
2023-10-28T00:38:30.926Z,8.4
2023-10-28T00:39:31.077Z,8.4
2023-10-28T00:40:31.256Z,8.4
2023-10-28T00:41:31.380Z,8.48
2023-10-28T00:42:31.534Z,8.72
2023-10-28T00:43:31.683Z,8.72
2023-10-28T00:44:31.851Z,8.8
2023-10-28T00:45:31.945Z,9.04
2023-10-28T00:46:32.095Z,8.88
2023-10-28T00:47:32.262Z,8.88
2023-10-28T00:48:32.412Z,8.88
2023-10-28T00:49:32.541Z,8.8
2023-10-28T00:51:33.596Z,8.48
2023-10-28T00:53:33.714Z,8.72
2023-10-28T00:55:33.411Z,8.48
2023-10-28T00:56:33.556Z,8.48
2023-10-28T00:57:33.712Z,8.4
2023-10-28T00:58:33.871Z,8.08
2023-10-28T00:59:34.008Z,8
2023-10-28T01:00:34.158Z,7.92
2023-10-28T01:01:34.316Z,8.24
2023-10-28T01:02:34.494Z,8.24
2023-10-28T01:03:34.684Z,8.08
2023-10-28T01:04:34.866Z,8.08
2023-10-28T01:05:34.965Z,7.92
2023-10-28T01:06:35.075Z,8
2023-10-28T01:07:35.253Z,7.92
2023-10-28T01:08:35.444Z,7.84
2023-10-28T01:09:35.634Z,7.92
2023-10-28T01:10:35.760Z,7.6
2023-10-28T01:11:35.991Z,7.84
2023-10-28T01:12:36.197Z,8
2023-10-28T01:13:36.278Z,7.84
2023-10-28T01:14:37.421Z,8
2023-10-28T01:16:36.661Z,8.24
2023-10-28T01:17:36.996Z,7.92
2023-10-28T01:18:37.026Z,7.92
2023-10-28T01:19:37.175Z,7.84
2023-10-28T01:20:37.296Z,7.52
2023-10-28T01:21:37.446Z,7.68
2023-10-28T01:22:37.638Z,7.52
2023-10-28T01:23:37.759Z,8
2023-10-28T01:24:37.900Z,8.08
2023-10-28T01:25:38.098Z,7.92
2023-10-28T01:26:38.219Z,7.44
2023-10-28T01:27:38.354Z,7.2
2023-10-28T01:28:38.558Z,7.84
2023-10-28T01:29:38.662Z,7.84
2023-10-28T01:30:38.820Z,8.4
2023-10-28T01:31:38.974Z,8.24
2023-10-28T01:32:39.043Z,8.24
2023-10-28T01:33:39.167Z,8.24
2023-10-28T01:34:39.324Z,8
2023-10-28T01:35:39.505Z,8.32
2023-10-28T01:36:39.622Z,8
2023-10-28T01:37:39.792Z,7.92
2023-10-28T01:38:39.937Z,7.92
2023-10-28T01:39:40.088Z,8
2023-10-28T01:40:40.250Z,7.84
2023-10-28T01:41:40.379Z,7.84
2023-10-28T01:42:40.483Z,8.24
2023-10-28T01:43:40.635Z,8.24
2023-10-28T01:44:40.790Z,8.08
2023-10-28T01:45:40.970Z,7.84
2023-10-28T01:46:41.112Z,7.92
2023-10-28T01:47:41.252Z,8.08
2023-10-28T01:48:41.389Z,8.08
2023-10-28T01:49:41.544Z,7.84
2023-10-28T01:50:41.694Z,7.92
2023-10-28T01:51:41.843Z,7.84
2023-10-28T01:52:42.074Z,7.84
2023-10-28T01:53:42.151Z,7.68
2023-10-28T01:54:42.306Z,7.68
2023-10-28T01:55:42.474Z,7.6
2023-10-28T01:56:42.634Z,7.6
2023-10-28T01:57:42.841Z,7.6
2023-10-28T01:58:43.027Z,7.52
2023-10-28T01:59:43.278Z,7.52
2023-10-28T02:00:43.408Z,7.6
2023-10-28T02:01:43.731Z,7.44
2023-10-28T02:02:44.022Z,7.04
2023-10-28T02:03:44.021Z,7.28
2023-10-28T02:04:44.202Z,7.2
2023-10-28T02:05:44.276Z,7.12
2023-10-28T02:06:44.431Z,7.12
2023-10-28T02:07:44.569Z,7.28
2023-10-28T02:08:44.683Z,7.28
2023-10-28T02:09:45.047Z,7.28
2023-10-28T02:10:44.995Z,7.28
2023-10-28T02:11:45.140Z,7.28
2023-10-28T02:12:45.285Z,7.28
2023-10-28T02:13:45.449Z,7.44
2023-10-28T02:14:45.584Z,7.44
2023-10-28T02:15:45.756Z,7.44
2023-10-28T02:16:45.917Z,7.28
2023-10-28T02:17:46.045Z,7.44
2023-10-28T02:18:46.217Z,7.28
2023-10-28T02:19:46.344Z,7.52
2023-10-28T02:20:46.393Z,7.12
2023-10-28T02:21:47.145Z,7.04
2023-10-28T02:22:46.730Z,7.04
2023-10-28T02:23:46.857Z,6.88
2023-10-28T02:24:47.002Z,7.2
2023-10-28T02:25:47.175Z,7.12
2023-10-28T02:26:47.309Z,7.2
2023-10-28T02:27:47.524Z,7.28
2023-10-28T02:28:47.628Z,7.28
2023-10-28T02:29:47.840Z,7.28
2023-10-28T02:30:47.917Z,7.12
2023-10-28T02:31:48.135Z,7.28
2023-10-28T02:32:48.289Z,7.28
2023-10-28T02:33:48.364Z,7.04
2023-10-28T02:34:48.553Z,7.2
2023-10-28T02:35:48.677Z,7.6
2023-10-28T02:36:48.818Z,7.6
2023-10-28T02:37:48.939Z,7.44
2023-10-28T02:38:49.075Z,7.28
2023-10-28T02:39:49.231Z,7.44
2023-10-28T02:40:49.462Z,7.2
2023-10-28T02:41:49.537Z,7.04
2023-10-28T02:42:49.684Z,7.04
2023-10-28T02:43:49.874Z,7.04
2023-10-28T02:44:49.940Z,7.12
2023-10-28T02:45:50.130Z,7.04
2023-10-28T02:46:50.250Z,6.8
2023-10-28T02:47:50.407Z,7.12
2023-10-28T02:48:50.521Z,6.88
2023-10-28T02:49:50.654Z,6.88
2023-10-28T02:50:50.802Z,6.8
2023-10-28T02:51:50.949Z,7.04
2023-10-28T02:52:51.106Z,7.04
2023-10-28T02:53:51.250Z,7.04
2023-10-28T02:54:51.404Z,7.28
2023-10-28T02:55:51.610Z,7.28
2023-10-28T02:56:51.715Z,7.52
2023-10-28T02:57:51.859Z,7.6
2023-10-28T02:58:52.044Z,7.52
2023-10-28T02:59:52.171Z,7.2
2023-10-28T03:00:52.327Z,7.2
2023-10-28T03:01:52.487Z,7.2
2023-10-28T03:02:52.668Z,7.28
2023-10-28T03:03:52.737Z,7.44
2023-10-28T03:04:52.919Z,7.52
2023-10-28T03:05:53.022Z,7.52
2023-10-28T03:06:53.220Z,7.6
2023-10-28T03:07:53.355Z,7.6
2023-10-28T03:08:53.495Z,7.68
2023-10-28T03:09:53.634Z,7.44
2023-10-28T03:10:53.792Z,7.44
2023-10-28T03:11:53.938Z,8
2023-10-28T03:12:54.093Z,7.84
2023-10-28T03:13:54.273Z,7.92
2023-10-28T03:14:54.393Z,7.92
2023-10-28T03:15:54.561Z,7.68
2023-10-28T03:16:54.669Z,7.52
2023-10-28T03:17:54.821Z,8
2023-10-28T03:18:54.947Z,7.84
2023-10-28T03:19:55.136Z,7.6
2023-10-28T03:20:55.246Z,7.52
2023-10-28T03:21:55.396Z,7.52
2023-10-28T03:22:55.577Z,7.84
2023-10-28T03:23:55.701Z,8.4
2023-10-28T03:24:55.855Z,8.24
2023-10-28T03:25:56.042Z,8.32
2023-10-28T03:26:56.176Z,8.32
2023-10-28T03:27:56.311Z,7.84
2023-10-28T03:29:56.610Z,8.32
2023-10-28T03:30:56.772Z,8.72
2023-10-28T03:31:56.973Z,9.12
2023-10-28T03:32:57.037Z,8.72
2023-10-28T03:33:57.172Z,8.4
2023-10-28T03:34:57.402Z,8.32
2023-10-28T03:35:57.475Z,8.48
2023-10-28T03:36:57.626Z,8.72
2023-10-28T03:37:57.794Z,8.72
2023-10-28T03:38:57.922Z,8.8
2023-10-28T03:39:58.082Z,8.72
2023-10-28T03:40:58.263Z,8.48
2023-10-28T03:41:58.386Z,8.8
2023-10-28T03:42:58.534Z,8.72
2023-10-28T03:43:58.715Z,9.04
2023-10-28T03:44:58.840Z,9.2
2023-10-28T03:45:58.996Z,9.04
2023-10-28T03:46:59.167Z,9.28
2023-10-28T03:47:59.321Z,9.28
2023-10-28T03:48:59.447Z,9.12
2023-10-28T03:49:59.611Z,9.12
2023-10-28T03:50:59.750Z,9.36
2023-10-28T03:51:59.907Z,9.52
2023-10-28T03:53:00.077Z,9.36
2023-10-28T03:54:00.210Z,9.28
2023-10-28T03:55:00.352Z,9.28
2023-10-28T03:56:00.545Z,9.2
2023-10-28T03:57:00.658Z,9.52
2023-10-28T03:58:00.763Z,9.52
2023-10-28T03:59:00.932Z,9.599999
2023-10-28T04:00:01.086Z,9.52
2023-10-28T04:01:01.230Z,9.679999
2023-10-28T04:02:01.464Z,9.599999
2023-10-28T04:03:01.535Z,9.599999
2023-10-28T04:04:01.789Z,9.52
2023-10-28T04:05:01.888Z,9.28
2023-10-28T04:06:02.939Z,9.52
2023-10-28T04:07:02.180Z,9.599999
2023-10-28T04:08:02.339Z,9.599999
2023-10-28T04:09:02.481Z,9.599999
2023-10-28T04:10:02.644Z,9.599999
2023-10-28T04:11:02.823Z,9.679999
2023-10-28T04:12:02.942Z,9.599999
2023-10-28T04:13:03.079Z,9.679999
2023-10-28T04:14:03.195Z,9.679999
2023-10-28T04:15:03.290Z,9.52
2023-10-28T04:16:03.493Z,9.679999
2023-10-28T04:17:03.624Z,9.599999
2023-10-28T04:18:03.785Z,9.679999
2023-10-28T04:19:04.455Z,9.679999
2023-10-28T04:21:04.156Z,9.679999
2023-10-28T04:22:04.308Z,9.599999
2023-10-28T04:23:04.527Z,9.599999
2023-10-28T04:24:04.582Z,9.599999
2023-10-28T04:25:04.712Z,9.679999
2023-10-28T04:26:04.916Z,9.84
2023-10-28T04:27:05.010Z,9.679999
2023-10-28T04:28:05.166Z,9.679999
2023-10-28T04:29:05.359Z,9.84
2023-10-28T04:30:05.416Z,9.84
2023-10-28T04:31:05.598Z,9.92
2023-10-28T04:32:05.735Z,9.84
2023-10-28T04:33:05.842Z,9.679999
2023-10-28T04:34:05.981Z,9.679999
2023-10-28T04:35:15.629Z,9.679999
2023-10-28T04:36:06.359Z,9.92
2023-10-28T04:37:06.438Z,9.84
2023-10-28T04:38:06.599Z,9.84
2023-10-28T04:39:06.741Z,9.679999
2023-10-28T04:40:06.889Z,9.84
2023-10-28T04:41:07.059Z,9.92
2023-10-28T04:42:07.185Z,9.84
2023-10-28T04:43:07.334Z,9.92
2023-10-28T04:44:07.530Z,9.92
2023-10-28T04:45:07.651Z,9.92
2023-10-28T04:46:09.287Z,9.92
2023-10-28T04:47:07.911Z,9.84
2023-10-28T04:48:08.047Z,10.08
2023-10-28T04:49:08.434Z,9.84
2023-10-28T04:51:08.510Z,9.84
2023-10-28T04:52:08.658Z,9.679999
2023-10-28T04:53:08.862Z,9.599999
2023-10-28T04:54:08.972Z,9.679999
2023-10-28T04:55:09.112Z,9.679999
2023-10-28T04:56:09.288Z,9.52
2023-10-28T04:57:09.417Z,9.679999
2023-10-28T04:58:09.566Z,9.84
2023-10-28T04:59:09.722Z,9.92
2023-10-28T05:00:09.871Z,9.599999
2023-10-28T05:01:10.036Z,9.599999
2023-10-28T05:02:10.192Z,9.599999
2023-10-28T05:03:10.275Z,9.599999
2023-10-28T05:04:10.447Z,9.599999
2023-10-28T05:05:10.592Z,9.679999
2023-10-28T05:06:10.770Z,9.52
2023-10-28T05:07:10.882Z,9.599999
2023-10-28T05:08:11.041Z,9.599999
2023-10-28T05:09:11.182Z,9.599999
2023-10-28T05:10:11.350Z,9.679999
2023-10-28T05:11:11.579Z,9.84
2023-10-28T05:12:11.654Z,9.599999
2023-10-28T05:13:11.788Z,9.679999
2023-10-28T05:14:11.940Z,9.599999
2023-10-28T05:15:12.104Z,9.52
2023-10-28T05:16:12.297Z,9.52
2023-10-28T05:17:12.425Z,9.52
2023-10-28T05:18:12.547Z,9.52
2023-10-28T05:19:12.697Z,9.52
2023-10-28T05:20:12.913Z,9.52
2023-10-28T05:21:13.021Z,9.599999
2023-10-28T05:22:13.157Z,9.679999
2023-10-28T05:23:13.352Z,9.679999
2023-10-28T05:24:13.457Z,9.84
2023-10-28T05:25:13.609Z,9.52
2023-10-28T05:26:13.771Z,9.599999
2023-10-28T05:27:13.915Z,9.599999
2023-10-28T05:28:14.069Z,9.52
2023-10-28T05:29:14.259Z,9.599999
2023-10-28T05:30:14.383Z,9.679999
2023-10-28T05:31:14.518Z,9.52
2023-10-28T05:32:14.762Z,9.52
2023-10-28T05:33:14.785Z,9.599999
2023-10-28T05:34:14.943Z,9.36
2023-10-28T05:35:15.083Z,9.52
2023-10-28T05:36:15.226Z,9.599999
2023-10-28T05:37:15.378Z,9.599999
2023-10-28T05:38:15.558Z,9.36
2023-10-28T05:39:15.688Z,9.599999
2023-10-28T05:40:15.839Z,9.52
2023-10-28T05:41:16.027Z,9.52
2023-10-28T05:42:16.142Z,9.599999
2023-10-28T05:43:16.291Z,9.599999
2023-10-28T05:44:16.531Z,9.52
2023-10-28T05:45:16.595Z,9.599999
2023-10-28T05:46:16.765Z,9.36
2023-10-28T05:47:16.926Z,9.599999
2023-10-28T05:48:17.046Z,9.36
2023-10-28T05:49:17.201Z,9.36
2023-10-28T05:50:17.375Z,9.36
2023-10-28T05:51:17.500Z,9.28
2023-10-28T05:52:17.675Z,9.52
2023-10-28T05:53:17.831Z,9.599999
2023-10-28T05:54:17.962Z,9.52
2023-10-28T05:55:18.122Z,9.599999
2023-10-28T05:56:18.317Z,9.599999
2023-10-28T05:57:18.421Z,9.52
2023-10-28T05:58:18.569Z,9.36
2023-10-28T05:59:18.732Z,9.599999
2023-10-28T06:00:18.867Z,9.52
2023-10-28T06:01:19.054Z,9.36
2023-10-28T06:02:19.210Z,9.52
2023-10-28T06:04:19.697Z,9.599999
2023-10-28T06:05:20.016Z,9.599999
2023-10-28T06:07:20.470Z,9.599999
2023-10-28T06:09:20.238Z,9.36
2023-10-28T06:10:20.348Z,9.36
2023-10-28T06:11:20.528Z,9.52
2023-10-28T06:12:21.114Z,9.36
2023-10-28T06:13:21.220Z,9.52
2023-10-28T06:14:21.365Z,9.52
2023-10-28T06:15:21.367Z,9.599999
2023-10-28T06:16:21.754Z,9.599999
2023-10-28T06:17:21.893Z,9.52
2023-10-28T06:19:22.141Z,9.599999
2023-10-28T06:21:23.454Z,9.36
2023-10-28T06:23:23.509Z,9.36
2023-10-28T06:24:23.374Z,9.28
2023-10-28T06:25:23.822Z,9.52
2023-10-28T06:27:24.026Z,9.52
2023-10-28T06:28:23.880Z,9.52
2023-10-28T06:32:24.209Z,9.599999
2023-10-28T06:34:24.397Z,9.52
2023-10-28T06:35:24.127Z,9.36
2023-10-28T06:36:24.234Z,9.36
2023-10-28T06:37:24.380Z,9.52
2023-10-28T06:38:24.641Z,9.36
2023-10-28T06:39:24.688Z,9.36
2023-10-28T06:40:24.838Z,9.36
2023-10-28T06:41:24.989Z,9.28
2023-10-28T06:42:25.150Z,9.52
2023-10-28T06:44:26.169Z,9.28
2023-10-28T06:46:26.745Z,9.28
2023-10-28T06:47:26.657Z,9.36
2023-10-28T06:49:26.606Z,9.52
2023-10-28T06:51:26.917Z,9.52
2023-10-28T06:53:27.218Z,9.599999
2023-10-28T06:55:27.645Z,9.36
2023-10-28T06:57:28.401Z,9.2
2023-10-28T06:59:28.597Z,9.599999
2023-10-28T07:00:28.514Z,9.36
2023-10-28T07:01:28.006Z,9.52
2023-10-28T07:02:28.137Z,9.52
2023-10-28T07:03:28.313Z,9.599999
2023-10-28T07:04:28.395Z,9.599999
2023-10-28T07:05:28.602Z,9.52
2023-10-28T07:06:28.745Z,9.52
2023-10-28T07:07:28.894Z,9.52
2023-10-28T07:08:29.034Z,9.599999
2023-10-28T07:09:29.195Z,9.599999
2023-10-28T07:10:29.332Z,9.679999
2023-10-28T07:11:29.542Z,9.599999
2023-10-28T07:12:29.688Z,9.599999
2023-10-28T07:13:29.850Z,9.679999
2023-10-28T07:14:29.959Z,9.599999
2023-10-28T07:15:30.096Z,9.52
2023-10-28T07:16:30.235Z,9.599999
2023-10-28T07:17:30.607Z,9.52
2023-10-28T07:18:30.609Z,9.679999
2023-10-28T07:19:30.752Z,9.679999
2023-10-28T07:20:30.909Z,9.84
2023-10-28T07:21:31.054Z,9.679999
2023-10-28T07:22:31.209Z,9.84
2023-10-28T07:23:31.356Z,9.84
2023-10-28T07:24:31.510Z,9.84
2023-10-28T07:25:31.657Z,9.679999
2023-10-28T07:26:31.824Z,9.599999
2023-10-28T07:27:31.972Z,9.679999
2023-10-28T07:28:32.117Z,9.599999
2023-10-28T07:29:32.271Z,9.679999
2023-10-28T07:30:32.429Z,9.679999
2023-10-28T07:31:32.633Z,9.679999
2023-10-28T07:32:33.481Z,9.679999
2023-10-28T07:34:33.140Z,9.92
2023-10-28T07:35:33.336Z,9.92
2023-10-28T07:36:33.486Z,9.92
2023-10-28T07:37:33.630Z,9.84
2023-10-28T07:38:33.825Z,9.84
2023-10-28T07:39:33.930Z,9.92
2023-10-28T07:40:34.087Z,10
2023-10-28T07:41:34.239Z,10
2023-10-28T07:42:34.343Z,10.08
2023-10-28T07:43:34.499Z,10.08
2023-10-28T07:44:34.653Z,10.08
2023-10-28T07:45:34.803Z,10
2023-10-28T07:46:34.982Z,10
2023-10-28T07:47:35.160Z,10
2023-10-28T07:48:35.257Z,10
2023-10-28T07:49:35.404Z,10.08
2023-10-28T07:50:35.558Z,10
2023-10-28T07:51:35.712Z,10
2023-10-28T07:52:35.858Z,10
2023-10-28T07:53:36.006Z,10.08
2023-10-28T07:54:36.161Z,10.24
2023-10-28T07:55:36.313Z,10.24
2023-10-28T07:56:36.466Z,10.08
2023-10-28T07:57:36.636Z,10.24
2023-10-28T07:58:36.773Z,10.08
2023-10-28T07:59:36.917Z,10.08
2023-10-28T08:00:37.109Z,10.08
2023-10-28T08:01:37.233Z,10.08
2023-10-28T08:02:37.395Z,10.08
2023-10-28T08:03:37.541Z,10.08
2023-10-28T08:04:37.720Z,10.24
2023-10-28T08:05:37.894Z,10.32
2023-10-28T08:06:37.996Z,10.32
2023-10-28T08:07:38.135Z,10.48
2023-10-28T08:08:38.282Z,10.48
2023-10-28T08:09:38.434Z,10.48
2023-10-28T08:10:38.594Z,10.4
2023-10-28T08:11:38.736Z,10.48
2023-10-28T08:12:38.893Z,10.639999
2023-10-28T08:13:39.088Z,10.48
2023-10-28T08:14:39.225Z,10.8
2023-10-28T08:15:39.346Z,11.04
2023-10-28T08:16:39.519Z,11.2
2023-10-28T08:17:39.673Z,11.44
2023-10-28T08:18:41.001Z,11.28
2023-10-28T08:19:39.963Z,11.599999
2023-10-28T08:20:40.106Z,11.679999
2023-10-28T08:21:40.255Z,12
2023-10-28T08:22:40.411Z,11.679999
2023-10-28T08:23:40.565Z,11.92
2023-10-28T08:24:40.709Z,11.599999
2023-10-28T08:25:40.820Z,11.52
2023-10-28T08:26:40.962Z,12
2023-10-28T08:27:41.116Z,12
2023-10-28T08:28:41.275Z,12.32
2023-10-28T08:29:41.432Z,12.08
2023-10-28T08:30:41.610Z,12
2023-10-28T08:31:41.730Z,12.639999
2023-10-28T08:32:41.911Z,12.48
2023-10-28T08:33:42.030Z,12.08
2023-10-28T08:34:42.183Z,12.4
2023-10-28T08:35:42.339Z,12.24
2023-10-28T08:36:42.465Z,12.24
2023-10-28T08:37:42.673Z,12.08
2023-10-28T08:38:42.790Z,12.32
2023-10-28T08:39:42.937Z,12.4
2023-10-28T08:40:43.087Z,12.08
2023-10-28T08:41:43.193Z,12.48
2023-10-28T08:42:43.355Z,12.4
2023-10-28T08:43:44.180Z,12.639999
2023-10-28T08:44:43.641Z,12.719999
2023-10-28T08:45:43.754Z,13.12
2023-10-28T08:46:43.902Z,13.599999
2023-10-28T08:47:44.027Z,13.52
2023-10-28T08:48:44.151Z,13.52
2023-10-28T08:49:44.365Z,13.92
2023-10-28T08:50:44.417Z,14.4
2023-10-28T08:51:44.561Z,14.639999
2023-10-28T08:52:44.735Z,14.24
2023-10-28T08:53:44.867Z,14
2023-10-28T08:54:45.011Z,13.84
2023-10-28T08:55:45.164Z,14
2023-10-28T08:56:45.316Z,12.719999
2023-10-28T08:57:45.509Z,12.4
2023-10-28T08:58:45.624Z,12.639999
2023-10-28T08:59:45.929Z,12.719999
2023-10-28T09:00:45.944Z,12.799999
2023-10-28T09:01:46.076Z,12.719999
2023-10-28T09:02:46.257Z,12.719999
2023-10-28T09:03:46.420Z,13.52
2023-10-28T09:04:46.535Z,13.599999
2023-10-28T09:05:46.652Z,12.799999
2023-10-28T09:06:46.791Z,13.04
2023-10-28T09:07:46.971Z,12.799999
2023-10-28T09:08:47.089Z,13.28
2023-10-28T09:09:47.420Z,13.2
2023-10-28T09:10:47.393Z,13.12
2023-10-28T09:11:47.540Z,13.12
2023-10-28T09:13:47.845Z,12.88
2023-10-28T09:14:47.995Z,13.12
2023-10-28T09:15:48.298Z,13.12
2023-10-28T09:16:48.417Z,13.52
2023-10-28T09:17:48.697Z,13.44
2023-10-28T09:18:50.450Z,13.2
2023-10-28T09:19:48.879Z,13.12
2023-10-28T09:20:49.009Z,13.44
2023-10-28T09:21:49.174Z,12.88
2023-10-28T09:22:49.315Z,13.04
2023-10-28T09:23:49.470Z,12.719999
2023-10-28T09:24:52.056Z,13.12
2023-10-28T09:26:50.145Z,14.799999
2023-10-28T09:28:50.891Z,16.4
2023-10-28T09:30:51.199Z,14.719999
2023-10-28T09:32:50.822Z,14.799999
2023-10-28T09:33:50.989Z,14.24
2023-10-28T09:34:51.233Z,14.48
2023-10-28T09:35:51.316Z,14
2023-10-28T09:36:51.907Z,14.48
2023-10-28T09:37:51.604Z,13.84
2023-10-28T09:38:51.750Z,13.52
2023-10-28T09:39:51.897Z,13.84
2023-10-28T09:40:52.068Z,13.84
2023-10-28T09:41:52.193Z,13.52
2023-10-28T09:42:52.348Z,13.599999
2023-10-28T09:43:52.519Z,14.32
2023-10-28T09:44:52.609Z,15.04
2023-10-28T09:45:52.750Z,14.48
2023-10-28T09:46:52.955Z,15.04
2023-10-28T09:47:53.067Z,16
2023-10-28T09:48:53.206Z,16
2023-10-28T09:49:53.388Z,16
2023-10-28T09:50:53.511Z,15.2
2023-10-28T09:51:53.657Z,16.24
2023-10-28T09:52:53.860Z,16.88
2023-10-28T09:53:53.969Z,16.32
2023-10-28T09:54:54.123Z,16.4
2023-10-28T09:55:55.604Z,17.76
2023-10-28T09:56:54.424Z,16.32
2023-10-28T09:57:54.576Z,15.92
2023-10-28T09:58:54.726Z,15.28
2023-10-28T09:59:54.873Z,15.44
2023-10-28T10:00:55.050Z,14.719999
2023-10-28T10:01:55.178Z,15.599999
2023-10-28T10:02:55.345Z,17.04
2023-10-28T10:03:55.508Z,16
2023-10-28T10:04:55.659Z,15.92
2023-10-28T10:05:55.793Z,16.8
2023-10-28T10:06:55.933Z,16.48
2023-10-28T10:07:56.103Z,16.32
2023-10-28T10:08:56.193Z,15.92
2023-10-28T10:09:56.357Z,16.8
2023-10-28T10:10:56.592Z,17.04
2023-10-28T10:11:56.646Z,17.76
2023-10-28T10:12:56.796Z,18.88
2023-10-28T10:13:57.231Z,18.4
2023-10-28T10:14:57.105Z,17.6
2023-10-28T10:15:57.283Z,17.68
2023-10-28T10:16:57.429Z,16.4
2023-10-28T10:17:57.572Z,15.12
2023-10-28T10:18:57.706Z,14.639999
2023-10-28T10:19:57.890Z,14.4
2023-10-28T10:20:58.058Z,14.719999
2023-10-28T10:21:58.186Z,14.4
2023-10-28T10:22:58.318Z,14.32
2023-10-28T10:23:58.462Z,14.24
2023-10-28T10:24:58.625Z,14
2023-10-28T10:25:58.805Z,14.4
2023-10-28T10:26:58.934Z,13.84
2023-10-28T10:27:59.170Z,13.599999
2023-10-28T10:28:59.325Z,13.44
2023-10-28T10:29:59.482Z,13.2
2023-10-28T10:30:59.693Z,13.12
2023-10-28T10:31:59.816Z,13.12
2023-10-28T10:33:00.016Z,12.799999
2023-10-28T10:34:00.098Z,13.2
2023-10-28T10:35:00.215Z,13.12
2023-10-28T10:36:00.347Z,12.799999
2023-10-28T10:37:00.503Z,12.799999
2023-10-28T10:38:00.658Z,13.28
2023-10-28T10:39:01.766Z,13.44
2023-10-28T10:41:01.959Z,12.88
2023-10-28T10:43:01.447Z,12.48
2023-10-28T10:44:01.617Z,12.719999
2023-10-28T10:45:01.758Z,12.719999
2023-10-28T10:46:01.934Z,12.88
2023-10-28T10:47:02.067Z,13.44
2023-10-28T10:48:02.231Z,13.679999
2023-10-28T10:49:02.351Z,13.599999
2023-10-28T10:50:02.473Z,14.48
2023-10-28T10:51:02.616Z,14.639999
2023-10-28T10:52:02.770Z,15.2
2023-10-28T10:53:02.936Z,16.64
2023-10-28T10:54:03.072Z,15.28
2023-10-28T10:55:03.213Z,16.08
2023-10-28T10:56:03.381Z,15.679999
2023-10-28T10:57:03.522Z,15.44
2023-10-28T10:58:03.671Z,15.679999
2023-10-28T10:59:03.842Z,16
2023-10-28T11:00:03.951Z,15.679999
2023-10-28T11:01:08.223Z,16.08
2023-10-28T11:02:04.253Z,15.2
2023-10-28T11:03:04.502Z,16.64
2023-10-28T11:04:04.532Z,15.92
2023-10-28T11:05:04.703Z,15.839999
2023-10-28T11:06:04.829Z,15.52
2023-10-28T11:07:04.944Z,15.52
2023-10-28T11:08:05.137Z,14.88
2023-10-28T11:09:05.241Z,14.48
2023-10-28T11:10:05.423Z,14.32
2023-10-28T11:11:05.575Z,14.32
2023-10-28T11:12:05.699Z,14.24
2023-10-28T11:13:05.853Z,13.599999
2023-10-28T11:14:05.975Z,13.84
2023-10-28T11:15:06.101Z,13.92
2023-10-28T11:16:06.280Z,13.92
2023-10-28T11:17:06.443Z,13.599999
2023-10-28T11:18:06.568Z,13.12
2023-10-28T11:19:06.669Z,12.88
2023-10-28T11:20:06.833Z,12.719999
2023-10-28T11:21:06.966Z,12.639999
2023-10-28T11:22:07.114Z,12.799999
2023-10-28T11:23:07.294Z,13.2
2023-10-28T11:24:07.410Z,13.679999
2023-10-28T11:25:07.567Z,13.84
2023-10-28T11:26:07.731Z,13.92
2023-10-28T11:27:07.875Z,13.52
2023-10-28T11:28:08.050Z,13.44
2023-10-28T11:29:08.247Z,13.2
2023-10-28T11:30:08.325Z,13.04
2023-10-28T11:31:08.507Z,12.88
2023-10-28T11:32:08.668Z,12.88
2023-10-28T11:33:08.988Z,12.88
2023-10-28T11:34:08.934Z,13.28
2023-10-28T11:35:09.081Z,13.52
2023-10-28T11:36:09.280Z,13.679999
2023-10-28T11:37:09.392Z,13.679999
2023-10-28T11:38:09.558Z,13.679999
2023-10-28T11:39:09.691Z,13.44
2023-10-28T11:40:09.837Z,13.44
2023-10-28T11:41:09.995Z,13.84
2023-10-28T11:42:10.123Z,13.679999
2023-10-28T11:43:10.260Z,13.52
2023-10-28T11:44:10.399Z,14.08
2023-10-28T11:45:10.551Z,14
2023-10-28T11:46:10.719Z,14.32
2023-10-28T11:47:10.922Z,13.599999
2023-10-28T11:48:11.067Z,13.679999
2023-10-28T11:49:11.168Z,14.08
2023-10-28T11:50:11.320Z,14.32
2023-10-28T11:51:11.456Z,14.08
2023-10-28T11:52:11.613Z,14.08
2023-10-28T11:53:11.775Z,14.24
2023-10-28T11:54:11.913Z,14.08
2023-10-28T11:55:12.083Z,14
2023-10-28T11:56:12.246Z,13.92
2023-10-28T11:57:12.317Z,13.52
2023-10-28T11:58:12.467Z,13.12
2023-10-28T11:59:12.639Z,13.04
2023-10-28T12:00:12.768Z,13.04
2023-10-28T12:01:12.962Z,13.12
2023-10-28T12:02:13.089Z,13.28
2023-10-28T12:03:13.249Z,13.12
2023-10-28T12:04:13.386Z,13.04
2023-10-28T12:05:13.617Z,12.88
2023-10-28T12:06:23.051Z,13.04
2023-10-28T12:07:13.832Z,13.04
2023-10-28T12:08:14.033Z,13.04
2023-10-28T12:09:14.139Z,13.04
2023-10-28T12:10:14.305Z,13.04
2023-10-28T12:11:14.453Z,12.799999
2023-10-28T12:12:14.591Z,12.799999
2023-10-28T12:13:14.745Z,12.88
2023-10-28T12:14:14.883Z,12.88
2023-10-28T12:15:15.001Z,12.799999
2023-10-28T12:16:15.155Z,12.719999
2023-10-28T12:17:15.315Z,12.719999
2023-10-28T12:18:15.478Z,12.48
2023-10-28T12:19:15.611Z,12.48
2023-10-28T12:20:15.821Z,12.639999
2023-10-28T12:21:15.924Z,12.4
2023-10-28T12:22:16.064Z,12.4
2023-10-28T12:23:16.251Z,12.4
2023-10-28T12:24:16.360Z,12.32
2023-10-28T12:25:16.516Z,12.32
2023-10-28T12:26:16.696Z,12.4
2023-10-28T12:27:16.816Z,12.4
2023-10-28T12:28:16.967Z,12.48
2023-10-28T12:29:17.138Z,12.4
2023-10-28T12:30:17.288Z,12.639999
2023-10-28T12:31:17.501Z,12.719999
2023-10-28T12:32:17.619Z,13.12
2023-10-28T12:33:17.746Z,13.2
2023-10-28T12:34:17.831Z,13.599999
2023-10-28T12:35:17.992Z,14.32
2023-10-28T12:36:18.140Z,14.08
2023-10-28T12:37:18.297Z,14.32
2023-10-28T12:38:18.526Z,14.639999
2023-10-28T12:39:19.091Z,14.639999
2023-10-28T12:40:18.747Z,14.719999
2023-10-28T12:41:18.944Z,14.719999
2023-10-28T12:42:19.074Z,14.4
2023-10-28T12:43:19.200Z,14.88
2023-10-28T12:44:19.383Z,14.719999
2023-10-28T12:45:19.501Z,14.719999
2023-10-28T12:46:19.654Z,14.32
2023-10-28T12:47:19.907Z,14.32
2023-10-28T12:48:19.955Z,14.08
2023-10-28T12:49:20.115Z,14.32
2023-10-28T12:50:20.314Z,13.92
2023-10-28T12:51:20.413Z,13.679999
2023-10-28T12:52:20.568Z,13.44
2023-10-28T12:53:20.745Z,13.599999
2023-10-28T12:54:20.867Z,13.679999
2023-10-28T12:55:21.025Z,13.44
2023-10-28T12:56:21.137Z,13.2
2023-10-28T12:57:21.269Z,13.28
2023-10-28T12:58:21.422Z,13.2
2023-10-28T12:59:21.596Z,13.12
2023-10-28T13:00:21.687Z,12.88
2023-10-28T13:01:21.856Z,13.04
2023-10-28T13:02:21.993Z,13.12
2023-10-28T13:03:22.216Z,13.12
2023-10-28T13:04:24.420Z,13.2
2023-10-28T13:05:22.466Z,12.88
2023-10-28T13:06:22.591Z,13.12
2023-10-28T13:07:22.738Z,13.2
2023-10-28T13:08:22.914Z,13.12
2023-10-28T13:09:23.049Z,13.04
2023-10-28T13:10:23.192Z,13.2
2023-10-28T13:11:23.435Z,13.28
2023-10-28T13:12:23.497Z,13.12
2023-10-28T13:13:23.656Z,13.04
2023-10-28T13:14:23.800Z,13.04
2023-10-28T13:15:23.968Z,13.2
2023-10-28T13:16:24.111Z,13.12
2023-10-28T13:17:24.288Z,13.2
2023-10-28T13:18:24.405Z,13.2
2023-10-28T13:19:24.569Z,13.28
2023-10-28T13:20:24.763Z,13.12
2023-10-28T13:21:24.868Z,13.2
2023-10-28T13:22:25.013Z,13.28
2023-10-28T13:23:25.194Z,13.12
2023-10-28T13:24:25.319Z,12.88
2023-10-28T13:25:25.478Z,12.88
2023-10-28T13:26:25.650Z,13.12